函館空港の過去48時間の天気

函館空港 (Hakodate)

現在時刻: 1/19 20:35 JST (1/19 11:35 UTC) 以下の時間は現地時間です。

過去48時間のMETAR気象情報
時間 風向 風速(m/s) 視程 気温(℃) 湿度(%) 気圧(hPa) 天気現象
19 20:00 3 10km以上 -3 74 1016
19 19:46 北北西 3 10km以上 -1 69 1016
19 19:00 西 5 10km以上 0 64 1016
19 18:00 西 7 10km以上 -1 69 1016
19 17:00 西 6 10km以上 -1 64 1016
19 16:00 西 7 10km以上 -1 64 1016
19 15:00 西 8 10km以上 0 55 1016
19 14:00 西 7 10km以上 0 64 1016
19 13:28 西 8 10km以上 0 59 1015
19 13:00 西 9 10km以上 0 59 1015
19 12:39 西 8 10km以上 0 59 1016
19 12:00 西北西 8 10km以上 0 64 1016 周辺でしゅう雨
19 11:00 西 4 10km以上 -1 74 1017 弱いしゅう雪
19 10:00 西北西 3 10km以上 -1 69 1017
19 09:00 北西 2 10km以上 -2 69 1017
19 08:00 不定 1 10km以上 -6 79 1017
19 07:00 4 10km以上 -6 79 1017 弱いしゅう雪
19 06:10 2 10km以上 -7 86 1016 弱いしゅう雪
18 20:00 西 4 10km以上 -6 73 1013
18 19:00 西 7 10km以上 -4 80 1013 弱いしゅう雪
18 18:25 西 7 5000m -4 86 1012 弱いしゅう雪
18 18:18 西 7 2400m -4 93 1012 弱いしゅう雪
18 18:09 西 7 3100m -4 93 1012 弱いしゅう雪
18 17:39 西 5 1400m -4 86 1012 弱いしゅう雪
18 17:29 西北西 6 1500m -4 86 1011 弱いしゅう雪
18 17:20 西北西 7 1400m -4 86 1011 弱いしゅう雪
18 17:09 西北西 7 2400m -4 86 1011 弱いしゅう雪
18 17:00 西北西 6 1600m -4 93 1011 弱いしゅう雪
18 16:44 西北西 6 500m -4 86 1011 しゅう雪
18 16:38 西北西 5 500m -4 86 1011 しゅう雪
18 16:19 北西 5 2400m -4 93 1010 弱いしゅう雪
18 16:09 西北西 5 2300m -4 86 1010 弱いしゅう雪
18 16:00 西北西 6 4000m -4 93 1010 弱いしゅう雪
18 15:50 西北西 6 2400m -4 93 1010 弱いしゅう雪
18 15:37 西北西 6 2300m -4 86 1010 弱いしゅう雪
18 15:10 西 8 3200m -4 86 1010 弱いしゅう雪
18 14:42 西 7 4900m -3 80 1009 弱いしゅう雪
18 14:26 西 6 5000m -3 86 1009 弱いしゅう雪
18 14:16 西北西 6 3100m -3 80 1009 弱いしゅう雪
18 14:00 西北西 6 6000m -3 80 1009 弱いしゅう雪
18 13:00 西北西 6 5000m -3 80 1009 弱いしゅう雪
18 12:00 西北西 7 7000m -3 74 1009 弱いしゅう雪
18 11:00 西北西 7 8000m -3 74 1010 弱いしゅう雪
18 10:00 西北西 7 6000m -4 74 1010 弱いしゅう雪
18 09:00 北西 6 10km以上 -4 63 1009 周辺でしゅう雨
18 08:00 西北西 7 7000m -5 68 1009 弱いしゅう雪
18 07:34 西北西 5 5000m -6 73 1008 弱いしゅう雪
18 07:00 西北西 8 3100m -6 79 1008 弱いしゅう雪
18 06:47 西北西 8 5000m -6 79 1007 弱いしゅう雪
18 06:10 西北西 8 4900m -6 79 1007 弱いしゅう雪
RJCH 191100Z 01005KT 9999 FEW020 SCT040 M03/M07 Q1016
RJCH 191046Z 33006KT 260V020 9999 FEW025 BKN040 M01/M06 Q1016 RMK 1CU025 5CU040 A3001
RJCH 191000Z 27010KT 9999 FEW020 BKN040 M00/M06 Q1016
RJCH 190900Z 27013KT 9999 FEW025 BKN040 M01/M06 Q1016
RJCH 190800Z 28011KT 9999 FEW020 SCT040 M01/M07 Q1016
RJCH 190700Z 28014KT 9999 FEW012 SCT025 BKN040 M01/M07 Q1016
RJCH 190600Z 27016KT 9999 FEW015 SCT030 BKN040 M00/M08 Q1016
RJCH 190500Z 28014KT 9999 FEW015 SCT030 BKN040 M00/M06 Q1016
RJCH 190428Z 28015G25KT 9999 FEW015 SCT030 BKN040 M00/M07 Q1015 RMK 1ST015 3CU030 5CU040 A3000
RJCH 190400Z 28018KT 9999 FEW025 BKN040 M00/M07 Q1015
RJCH 190339Z 28015G27KT 9999 FEW025 BKN040 M00/M07 Q1016 RMK 1CU025 5CU040 A3000
RJCH 190300Z 29015KT 9999 VCSH FEW015 SCT030 BKN040 00/M06 Q1016
RJCH 190200Z 28008KT 9999 -SHSN FEW015 SCT030 BKN040 M01/M05 Q1017
RJCH 190100Z 29005KT 9999 FEW025 BKN040 M01/M06 Q1017
RJCH 190000Z 31003KT 270V010 9999 FEW020 BKN035 M02/M07 Q1017
RJCH 182300Z VRB02KT 9999 FEW020 BKN040 M06/M09 Q1017
RJCH 182200Z 01007KT 9999 -SHSN FEW010 BKN035 M06/M09 Q1017
RJCH 182110Z 01004KT 9999 -SHSN FEW010 BKN040 M07/M09 Q1016 RMK 1ST010 5CU040 A3003
RJCH 181100Z 28007KT 9999 FEW008 SCT030 M06/M10 Q1013
RJCH 181000Z 27014KT 9999 -SHSN FEW008 SCT020 BKN040 M04/M07 Q1013
RJCH 180925Z 27013KT 5000 -SHSN FEW004 SCT010 BKN030 M04/M06 Q1012 RMK 1ST004 4ST010 7CU030 A2990
RJCH 180918Z 27014KT 2400 -SHSN FEW004 SCT008 BKN015 M04/M05 Q1012 RMK 1ST004 4ST008 7ST015 A2990
RJCH 180909Z 27013KT 3100 -SHSN FEW003 SCT008 BKN015 M04/M05 Q1012 RMK 1ST003 4ST008 6ST015 A2990
RJCH 180839Z 28010KT 1400 R12/P2000N -SHSN FEW003 SCT007 BKN010 M04/M06 Q1012 RMK 1ST003 4ST007 7ST010 A2989
RJCH 180829Z 29012KT 1500 R12/2000N -SHSN FEW004 SCT010 BKN015 M04/M06 Q1011 RMK 1ST004 4ST010 7ST015 A2988
RJCH 180820Z 29013KT 1400 R12/P2000N -SHSN FEW003 SCT007 BKN010 M04/M06 Q1011 RMK 1ST003 4ST007 7ST010 A2988
RJCH 180809Z 29014KT 2400 -SHSN FEW004 SCT010 BKN015 M04/M06 Q1011 RMK 1ST004 4ST010 6ST015 A2987
RJCH 180800Z 29011KT 260V320 1600 R12/1400VP2000U -SHSN FEW004 SCT010 BKN012 M04/M05 Q1011
RJCH 180744Z 29012KT 0500 R12/1100VP2000D SHSN VV005 M04/M06 Q1011 RMK A2986
RJCH 180738Z 29010KT 270V340 0500 R12/1100VP2000N SHSN VV005 M04/M06 Q1011 RMK A2986
RJCH 180719Z 31009KT 270V330 2400 R12/2000N -SHSN FEW005 SCT015 BKN020 M04/M05 Q1010 RMK 1ST005 3ST015 5CU020 A2985
RJCH 180709Z 30010KT 2300 R12/2000N -SHSN FEW004 SCT010 BKN020 M04/M06 Q1010 RMK 1ST004 3ST010 5CU020 A2984
RJCH 180700Z 30011KT 4000 -SHSN FEW004 SCT012 BKN025 M04/M05 Q1010
RJCH 180650Z 29012KT 270V330 2400 R12/1200VP2000U -SHSN FEW004 SCT012 BKN020 M04/M05 Q1010 RMK 1ST004 3ST012 5CU020 A2984
RJCH 180637Z 29012KT 2300 -SHSN FEW005 SCT012 BKN030 M04/M06 Q1010 RMK 1ST005 3ST012 5CU030 A2983
RJCH 180610Z 28015KT 3200 -SHSN FEW005 SCT015 BKN030 M04/M06 Q1010 RMK 1ST005 3ST015 5CU030 A2982
RJCH 180542Z 28014KT 4900 -SHSN FEW005 SCT018 BKN020 M03/M06 Q1009 RMK 1ST005 3ST018 5CU020 A2982
RJCH 180526Z 28012KT 5000 R12/2000N -SHSN FEW006 SCT018 BKN025 M03/M05 Q1009 RMK 1ST006 4ST018 5CU025 A2981
RJCH 180516Z 29011KT 3100 -SHSN FEW005 SCT015 BKN020 M03/M06 Q1009 RMK 1ST005 3ST015 5CU020 A2981
RJCH 180500Z 29012KT 6000 -SHSN FEW005 SCT015 BKN025 M03/M06 Q1009
RJCH 180400Z 29012KT 5000 -SHSN FEW010 SCT020 BKN035 M03/M06 Q1009
RJCH 180300Z 29014KT 7000 -SHSN FEW010 SCT025 BKN040 M03/M07 Q1009
RJCH 180200Z 30014KT 8000 -SHSN FEW010 BKN035 M03/M07 Q1010
RJCH 180100Z 29014KT 6000 -SHSN FEW005 BKN030 M04/M08 Q1010
RJCH 180000Z 31012KT 9999 VCSH FEW005 SCT020 M04/M10 Q1009
RJCH 172300Z 30013KT 7000 -SHSN FEW007 SCT020 BKN030 M05/M10 Q1009
RJCH 172234Z 30010KT 5000 -SHSN FEW007 SCT018 BKN030 M06/M10 Q1008 RMK 1ST007 3ST018 5CU030 A2978
RJCH 172200Z 29015KT 3100 -SHSN FEW006 SCT015 BKN025 M06/M09 Q1008
RJCH 172147Z 29015KT 5000 R12/2000N -SHSN FEW006 SCT020 BKN030 M06/M09 Q1007 RMK 1ST006 3CU020 6CU030 A2976
RJCH 172110Z 29016KT 4900 -SHSN FEW008 SCT012 BKN020 M06/M09 Q1007 RMK 1ST008 3ST012 6CU020 A2974